• Join FlightAware (Why Join?)
  • Login
  • US Flag 
04:34PM EDT


 

Airport Tracker/Info


-or-


 

Live Flight TrackerFlight Track Log ✈ N12UP ✈ 30-Apr-2013 ✈ KART - KBTV

Flight Track Log - Related Links

Times and Time Zones

All times are in EDT time to prevent confusion due to time zone crossing. See the N12UP flight status page for this flight to view local times or setup timezone preferences in your user account.

Time Position Orientation Groundspeed Altitude Reporting Facility
EDT Latitude Longitude Course Direction KTS MPH feet Rate Location/Type
05:10PM 43.9817 -75.9114 100° East 189 217 5,300  Level Boston Center
05:11PM 43.9733 -75.8444 100° East 184 212 7,500 2,040 Climbing Boston Center
05:12PM 43.9653 -75.7661 98° East 195 224 9,800 2,100 Climbing Boston Center
05:13PM 43.9528 -75.6906 103° East 195 224 12,200 1,560 Climbing Boston Center
05:14PM 43.9467 -75.6094 96° East 202 232 13,000 360 Climbing Boston Center
05:15PM 43.9681 -75.5153 72° East 222 255 13,000  Level Boston Center
05:16PM 43.9939 -75.4011 73° East 240 276 13,000  Level Boston Center
05:17PM 44.0150 -75.3069 73° East 246 283 13,000  Level Boston Center
05:18PM 44.0342 -75.2097 75° East 251 289 13,000  Level Boston Center
05:19PM 44.0572 -75.1125 72° East 257 296 13,000  Level Boston Center
05:20PM 44.0806 -75.0094 72° East 257 296 13,000  Level Boston Center
05:21PM 44.1014 -74.9150 73° East 257 296 13,000  Level Boston Center
05:22PM 44.1222 -74.8203 73° East 257 296 13,000  Level Boston Center
05:23PM 44.1428 -74.7256 73° East 257 296 13,000  Level Boston Center
05:24PM 44.1633 -74.6308 73° East 257 296 13,000  Level Boston Center
05:25PM 44.1839 -74.5361 73° East 257 296 13,000  Level Boston Center
05:26PM 44.2044 -74.4414 73° East 257 296 13,000  Level Boston Center
05:28PM 44.2247 -74.3464 73° East 257 296 13,000  Level Boston Center
05:29PM 44.2472 -74.2342 74° East 257 296 13,000  Level Boston Center
05:30PM 44.2697 -74.1392 72° East 257 296 13,000 -360 Level Boston Center
05:31PM 44.2853 -74.0553 75° East 257 296 12,300 -1,020 Descending Boston Center
05:32PM 44.3117 -73.9603 69° East 252 290 11,000 -1,500 Descending Boston Center
05:33PM 44.3419 -73.8711 65° Northeast 252 290 9,400 -1,500 Descending Boston Center
05:34PM 44.3703 -73.7817 66° East 246 283 8,000 -1,440 Descending Boston Center
05:35PM 44.4006 -73.6867 66° East 246 283 6,600 -1,500 Descending Boston Center
05:36PM 44.4222 -73.5969 71° East 246 283 5,100 -1,380 Descending Boston Center
05:37PM 44.4397 -73.5072 75° East 240 276 3,900 -960 Descending Boston Center
05:38PM 44.4553 -73.3997 79° East 235 270 3,000 -720 Descending Boston Center
05:39PM 44.4706 -73.3244 74° East 217 250 2,400 -420 Descending Boston Center
05:40PM 44.4878 -73.2519 72° East 206 237 2,200 -600 Descending Boston Center
05:41PM 44.5006 -73.2056 69° East 151 174 1,200 -900 Descending Boston Center
05:42PM 44.4839 -73.1703 124° Southeast 105 121 500 -480 Descending Boston Center
05:43PM 44.4717 -73.1442 123° Southeast 92 106 300 4,200 Descending Boston Center
05:44PM 44.4572 -73.1147 124° Southeast 92 106 9,000 8,700 Climbing Boston Center
05:46PM 44.4667 -73.1500 74° East  Level FlightAware Approximate
05:53PM 44.4719 -73.1533 74° East  Level Estimated